| time (UTC) | temp C | wind direction | speed KPH | gust KPH | rain 1hr cm | rain 24hr cm | rain mn cm | humidity % | barometer mb |
| 20260505213026 | 28 | 245 | 16.1 | 33.8 | 0.00 | 0.00 | 0.00 | 29 | 1004.9 |
| 20260505211516 | 28 | 153 | 19.3 | 38.6 | 0.00 | 0.00 | 0.00 | 28 | 1004.8 |
| 20260505210124 | 28 | 263 | 20.9 | 37.0 | 0.00 | 0.00 | 0.00 | 28 | 1004.8 |
| 20260505204558 | 28 | 227 | 9.7 | 27.4 | 0.00 | 0.00 | 0.00 | 29 | 1004.8 |
| 20260505203126 | 28 | 248 | 12.9 | 48.3 | 0.00 | 0.00 | 0.00 | 28 | 1005.0 |
| 20260505201528 | 28 | 248 | 11.3 | 30.6 | 0.00 | 0.00 | 0.00 | 29 | 1005.1 |
| 20260505200018 | 28 | 345 | 16.1 | 38.6 | 0.00 | 0.00 | 0.00 | 29 | 1005.0 |
| 20260505194558 | 27 | 284 | 17.7 | 35.4 | 0.00 | 0.00 | 0.00 | 31 | 1005.4 |
| 20260505193049 | 28 | 275 | 17.7 | 41.8 | 0.00 | 0.00 | 0.00 | 29 | 1005.2 |
| 20260505191543 | 28 | 302 | 17.7 | 33.8 | 0.00 | 0.00 | 0.00 | 32 | 1005.7 |
| 20260505190017 | 27 | 240 | 12.9 | 27.4 | 0.00 | 0.00 | 0.00 | 35 | 1006.0 |
| 20260505184551 | 27 | 245 | 17.7 | 33.8 | 0.00 | 0.00 | 0.00 | 34 | 1006.3 |
| 20260505183055 | 27 | 257 | 12.9 | 43.5 | 0.00 | 0.00 | 0.00 | 35 | 1006.4 |
| 20260505181532 | 27 | 163 | 17.7 | 29.0 | 0.00 | 0.00 | 0.00 | 36 | 1006.3 |
| 20260505180019 | 27 | 171 | 17.7 | 32.2 | 0.00 | 0.00 | 0.00 | 38 | 1006.5 |
| 20260505174506 | 26 | 202 | 12.9 | 24.1 | 0.00 | 0.00 | 0.00 | 39 | 1006.6 |
| 20260505173051 | 26 | 198 | 11.3 | 33.8 | 0.00 | 0.00 | 0.00 | 39 | 1006.9 |
| 20260505171531 | 26 | 217 | 11.3 | 25.7 | 0.00 | 0.00 | 0.00 | 39 | 1007.0 |
| 20260505170009 | 26 | 183 | 11.3 | 27.4 | 0.00 | 0.00 | 0.00 | 40 | 1007.1 |
| 20260505164624 | 26 | 232 | 12.9 | 24.1 | 0.00 | 0.00 | 0.00 | 40 | 1007.2 |
| 20260505163031 | 25 | 295 | 8.0 | 30.6 | 0.00 | 0.00 | 0.00 | 41 | 1007.5 |
| 20260505161521 | 25 | 175 | 14.5 | 29.0 | 0.00 | 0.00 | 0.00 | 42 | 1007.8 |
| 20260505153059 | 23 | 279 | 9.7 | 22.5 | 0.00 | 0.00 | 0.00 | 45 | 1008.5 |
| 20260505151531 | 23 | 184 | 9.7 | 17.7 | 0.00 | 0.00 | 0.00 | 45 | 1008.5 |
| 20260505130117 | 18 | 208 | 6.4 | 17.7 | 0.00 | 0.00 | 0.00 | 55 | 1008.7 |
| 20260505124535 | 18 | 257 | 6.4 | 20.9 | 0.00 | 0.00 | 0.00 | 57 | 1008.6 |
| 20260505123008 | 17 | 284 | 3.2 | 12.9 | 0.00 | 0.00 | 0.00 | 60 | 1008.8 |
| 20260505121548 | 16 | 295 | 4.8 | 11.3 | 0.00 | 0.00 | 0.00 | 63 | 1008.9 |
| 20260505120042 | 15 | 227 | 3.2 | 9.7 | 0.00 | 0.00 | 0.00 | 65 | 1009.0 |
| 20260505114523 | 15 | 119 | 1.6 | 11.3 | 0.00 | 0.00 | 0.00 | 66 | 1008.5 |
| 20260505113010 | 15 | 205 | 1.6 | 12.9 | 0.00 | 0.00 | 0.00 | 67 | 1008.7 |
| 20260505111601 | 15 | 246 | 1.6 | 6.4 | 0.00 | 0.00 | 0.00 | 65 | 1008.8 |
| 20260505110126 | 15 | 175 | 3.2 | 11.3 | 0.00 | 0.00 | 0.00 | 66 | 1009.1 |
| 20260505101535 | 13 | 217 | 0.0 | 8.0 | 0.00 | 0.00 | 0.00 | 69 | 1008.8 |
| 20260505100004 | 13 | 209 | 1.6 | 4.8 | 0.00 | 0.00 | 0.00 | 69 | 1008.3 |
| 20260505094547 | 13 | 269 | 3.2 | 6.4 | 0.00 | 0.00 | 0.00 | 68 | 1008.2 |
| 20260505093035 | 13 | 194 | 3.2 | 9.7 | 0.00 | 0.00 | 0.00 | 69 | 1008.0 |
| 20260505091519 | 13 | 249 | 1.6 | 6.4 | 0.00 | 0.00 | 0.00 | 70 | 1008.1 |
| 20260505090159 | 12 | 182 | 1.6 | 6.4 | 0.00 | 0.00 | 0.00 | 71 | 1008.0 |
| 20260505084555 | 12 | 213 | 0.0 | 4.8 | 0.00 | 0.00 | 0.00 | 73 | 1008.0 |
| 20260505083037 | 12 | 213 | 0.0 | 3.2 | 0.00 | 0.00 | 0.00 | 72 | 1008.1 |
| 20260505081545 | 12 | 213 | 0.0 | 0.0 | 0.00 | 0.00 | 0.00 | 69 | 1008.0 |
| 20260505080015 | 13 | 213 | 0.0 | 4.8 | 0.00 | 0.00 | 0.00 | 66 | 1008.1 |
| 20260505074626 | 13 | 215 | 0.0 | 4.8 | 0.00 | 0.00 | 0.00 | 65 | 1008.0 |
| 20260505073049 | 13 | 224 | 0.0 | 4.8 | 0.00 | 0.00 | 0.00 | 65 | 1008.1 |
| 20260505071528 | 14 | 236 | 0.0 | 4.8 | 0.00 | 0.00 | 0.00 | 64 | 1008.0 |
| 20260505070127 | 14 | 236 | 0.0 | 4.8 | 0.00 | 0.00 | 0.00 | 63 | 1008.0 |
| 20260505064543 | 15 | 236 | 0.0 | 3.2 | 0.00 | 0.00 | 0.00 | 61 | 1007.9 |
| 20260505063029 | 15 | 237 | 0.0 | 4.8 | 0.00 | 0.00 | 0.00 | 60 | 1008.0 |
| 20260505061523 | 15 | 215 | 1.6 | 6.4 | 0.00 | 0.00 | 0.00 | 60 | 1008.1 |
| 20260505060032 | 15 | 205 | 1.6 | 6.4 | 0.00 | 0.00 | 0.00 | 59 | 1008.2 |
| 20260505054503 | 15 | 233 | 3.2 | 8.0 | 0.00 | 0.00 | 0.00 | 58 | 1008.2 |
| 20260505053100 | 16 | 238 | 1.6 | 9.7 | 0.00 | 0.00 | 0.00 | 57 | 1008.3 |
| 20260505053002 | 16 | 236 | 0.0 | 9.7 | 0.00 | 0.00 | 0.00 | 57 | 1008.3 |
| 20260505051558 | 16 | 190 | 1.6 | 9.7 | 0.00 | 0.00 | 0.00 | 56 | 1008.4 |
| 20260505041628 | 16 | 212 | 4.8 | 12.9 | 0.00 | 0.00 | 0.00 | 52 | 1008.6 |
| 20260505040040 | 16 | 192 | 3.2 | 12.9 | 0.00 | 0.00 | 0.00 | 51 | 1008.6 |
| 20260505034518 | 16 | 207 | 3.2 | 14.5 | 0.00 | 0.00 | 0.00 | 50 | 1008.7 |
| 20260505033013 | 17 | 209 | 3.2 | 14.5 | 0.00 | 0.00 | 0.00 | 49 | 1008.6 |
| 20260505031551 | 17 | 200 | 4.8 | 14.5 | 0.00 | 0.00 | 0.00 | 48 | 1008.7 |
| 20260505030034 | 17 | 192 | 6.4 | 16.1 | 0.00 | 0.00 | 0.00 | 48 | 1008.7 |
| 20260505024514 | 17 | 174 | 6.4 | 12.9 | 0.00 | 0.00 | 0.00 | 48 | 1008.8 |
| 20260505023007 | 17 | 192 | 4.8 | 12.9 | 0.00 | 0.00 | 0.00 | 47 | 1008.8 |
| 20260505021555 | 18 | 199 | 4.8 | 12.9 | 0.00 | 0.00 | 0.00 | 47 | 1008.9 |
| 20260505020042 | 18 | 219 | 4.8 | 14.5 | 0.00 | 0.00 | 0.00 | 46 | 1008.8 |
| 20260505014521 | 18 | 191 | 4.8 | 24.1 | 0.00 | 0.00 | 0.00 | 47 | 1008.7 |
| 20260505013002 | 18 | 265 | 8.0 | 19.3 | 0.00 | 0.00 | 0.00 | 47 | 1008.6 |
| 20260505011550 | 18 | 198 | 3.2 | 14.5 | 0.00 | 0.00 | 0.00 | 47 | 1008.4 |
| 20260505010039 | 17 | 173 | 3.2 | 8.0 | 0.00 | 0.00 | 0.00 | 48 | 1008.2 |
| 20260505004528 | 17 | 173 | 1.6 | 6.4 | 0.00 | 0.00 | 0.00 | 50 | 1008.0 |
| 20260505003005 | 18 | 173 | 1.6 | 6.4 | 0.00 | 0.00 | 0.00 | 49 | 1007.7 |
| 20260505001502 | 18 | 174 | 3.2 | 9.7 | 0.00 | 0.00 | 0.00 | 48 | 1007.5 |
| 20260505000122 | 18 | 188 | 4.8 | 12.9 | 0.00 | 0.00 | 0.00 | 46 | 1007.2 |
| 20260504234537 | 21 | 183 | 3.2 | 19.3 | 0.00 | 0.00 | 0.00 | 38 | 1007.0 |
| 20260504233031 | 21 | 246 | 4.8 | 17.7 | 0.00 | 0.00 | 0.00 | 34 | 1006.8 |
| 20260504231513 | 21 | 263 | 8.0 | 20.9 | 0.00 | 0.00 | 0.00 | 34 | 1006.6 |
| 20260504230005 | 21 | 294 | 11.3 | 22.5 | 0.00 | 0.00 | 0.00 | 33 | 1006.4 |
| 20260504224504 | 22 | 267 | 8.0 | 24.1 | 0.00 | 0.00 | 0.00 | 33 | 1006.5 |
| 20260504223055 | 22 | 263 | 8.0 | 17.7 | 0.00 | 0.00 | 0.00 | 32 | 1006.5 |
| 20260504221553 | 22 | 195 | 8.0 | 25.7 | 0.00 | 0.00 | 0.00 | 32 | 1006.4 |
| 20260504220045 | 22 | 245 | 8.0 | 20.9 | 0.00 | 0.00 | 0.00 | 32 | 1006.7 |
| 20260504214538 | 22 | 237 | 11.3 | 19.3 | 0.00 | 0.00 | 0.00 | 32 | 1006.8 |